Time;durP1;ratioP1;P1;durP2;ratioP2;P2;SDS_P1;SDS_P2;PMS_P1;PMS_P2;Temp;Humidity;BMP_temperature;BMP_pressure;BME280_temperature;BME280_humidity;BME280_pressure;Samples;Min_cycle;Max_cycle;Signal;HPM_P1;HPM_P2
2022/05/05 00:02:15;;;;;;;22.00;11.27;;;9.60;99.90;;;;;;10432055;28;20041;-82
2022/05/05 00:07:16;;;;;;;23.00;12.30;;;9.50;99.90;;;;;;10439834;28;20033;-82
2022/05/05 00:17:35;;;;;;;23.13;12.90;;;9.30;99.90;;;;;;10424518;28;20065;-83
2022/05/05 00:22:36;;;;;;;21.20;12.77;;;9.20;99.90;;;;;;10448275;28;20021;-82
2022/05/05 00:27:36;;;;;;;19.20;11.23;;;9.20;99.90;;;;;;10447437;28;20048;-82
2022/05/05 00:32:38;;;;;;;19.77;10.10;;;9.00;99.90;;;;;;10409113;28;20084;-83
2022/05/05 00:37:38;;;;;;;17.63;10.43;;;9.00;99.90;;;;;;10426022;28;20148;-82
2022/05/05 00:42:40;;;;;;;16.97;9.13;;;8.90;99.90;;;;;;10420300;28;20117;-82
2022/05/05 00:47:40;;;;;;;14.67;9.23;;;8.90;99.90;;;;;;10423218;28;20017;-82
2022/05/05 00:52:41;;;;;;;16.93;8.83;;;8.90;99.90;;;;;;10414199;28;20030;-82
2022/05/05 00:57:42;;;;;;;11.93;7.97;;;8.90;99.90;;;;;;10405362;28;20037;-82
2022/05/05 01:02:42;;;;;;;16.03;8.30;;;8.80;99.90;;;;;;10427322;28;20496;-82
2022/05/05 01:07:43;;;;;;;13.33;7.93;;;8.90;99.90;;;;;;10401925;28;20036;-82
2022/05/05 01:12:44;;;;;;;13.80;7.33;;;8.80;99.90;;;;;;10442041;28;20036;-82
2022/05/05 01:17:45;;;;;;;13.67;7.97;;;8.80;99.90;;;;;;10445668;28;20180;-82
2022/05/05 01:22:46;;;;;;;15.67;7.90;;;8.80;99.90;;;;;;10394965;28;20035;-82
2022/05/05 01:33:11;;;;;;;14.40;7.97;;;8.70;99.90;;;;;;10449955;28;20037;-82
2022/05/05 01:38:13;;;;;;;;;;;8.60;99.90;;;;;;10444576;28;20092;-82
2022/05/05 01:43:24;;;;;;;16.73;9.07;;;8.50;99.90;;;;;;10420626;28;19920;-82
2022/05/05 01:48:24;;;;;;;19.03;10.30;;;8.50;99.90;;;;;;10439332;28;20443;-82
2022/05/05 01:53:25;;;;;;;16.73;10.10;;;8.40;99.90;;;;;;10436230;28;20120;-82
2022/05/05 01:58:25;;;;;;;19.83;9.30;;;8.20;99.90;;;;;;10447553;28;20040;-83
2022/05/05 02:03:26;;;;;;;14.50;9.67;;;8.20;99.90;;;;;;10425782;28;20036;-83
2022/05/05 02:08:27;;;;;;;18.57;9.87;;;8.20;99.90;;;;;;10425755;28;20496;-82
2022/05/05 02:13:27;;;;;;;15.60;9.00;;;8.10;99.90;;;;;;10448560;28;20032;-82
2022/05/05 02:18:28;;;;;;;15.93;9.00;;;8.10;99.90;;;;;;10425807;28;20057;-82
2022/05/05 02:23:29;;;;;;;17.30;10.00;;;8.10;99.90;;;;;;10443887;28;20469;-82
2022/05/05 02:28:29;;;;;;;13.57;8.50;;;8.10;99.90;;;;;;10438783;28;20029;-82
2022/05/05 02:33:30;;;;;;;14.17;8.17;;;8.10;99.90;;;;;;10435949;28;20071;-82
2022/05/05 02:38:43;;;;;;;14.70;8.87;;;8.10;99.90;;;;;;10423477;28;20095;-82
2022/05/05 02:43:43;;;;;;;15.83;9.67;;;8.10;99.90;;;;;;10449171;28;20056;-82
2022/05/05 02:48:44;;;;;;;17.47;9.63;;;8.10;99.90;;;;;;10437559;28;20099;-82
2022/05/05 02:59:04;;;;;;;19.03;10.03;;;8.10;99.90;;;;;;10433734;28;20045;-82
2022/05/05 03:04:04;;;;;;;15.33;9.30;;;8.00;99.90;;;;;;10427896;28;20018;-82
2022/05/05 03:09:05;;;;;;;17.50;9.93;;;7.90;99.90;;;;;;10408594;28;20025;-83
2022/05/05 03:14:06;;;;;;;17.30;10.77;;;7.90;99.90;;;;;;10429220;28;20037;-83
2022/05/05 03:19:06;;;;;;;23.27;10.67;;;7.90;99.90;;;;;;10438510;28;20040;-81
2022/05/05 03:24:07;;;;;;;22.43;13.03;;;7.80;99.90;;;;;;10408452;28;20469;-81
2022/05/05 03:29:08;;;;;;;19.67;12.30;;;7.80;99.90;;;;;;10425080;28;20036;-82
2022/05/05 03:34:09;;;;;;;19.77;12.03;;;7.80;99.90;;;;;;10432051;28;20044;-82
2022/05/05 03:39:10;;;;;;;22.77;12.70;;;7.70;99.90;;;;;;10410413;28;20047;-82
2022/05/05 03:44:11;;;;;;;25.93;13.70;;;7.70;99.90;;;;;;10435972;28;20453;-82
2022/05/05 03:49:11;;;;;;;24.57;13.87;;;7.70;99.90;;;;;;10440669;28;20036;-82
2022/05/05 03:54:12;;;;;;;23.00;12.87;;;7.70;99.90;;;;;;10445581;28;20544;-82
2022/05/05 03:59:12;;;;;;;18.87;11.60;;;7.80;99.90;;;;;;10433102;28;20049;-82
2022/05/05 04:04:13;;;;;;;18.23;12.07;;;7.90;99.90;;;;;;10420079;28;20486;-83
2022/05/05 04:09:14;;;;;;;21.07;12.23;;;8.20;99.90;;;;;;10440612;28;20083;-83
2022/05/05 04:14:14;;;;;;;22.80;11.97;;;8.40;99.90;;;;;;10442027;28;20476;-84
2022/05/05 04:19:15;;;;;;;16.90;11.30;;;8.70;99.90;;;;;;10450721;28;20500;-81
2022/05/05 04:24:15;;;;;;;15.57;10.70;;;9.00;99.90;;;;;;10450653;28;20025;-83
2022/05/05 04:29:16;;;;;;;18.50;12.83;;;9.30;99.90;;;;;;10436821;28;20103;-84
2022/05/05 04:34:17;;;;;;;19.90;11.83;;;9.50;99.90;;;;;;10439967;28;20052;-82
2022/05/05 04:39:19;;;;;;;23.40;12.87;;;9.70;99.90;;;;;;10432660;28;20040;-82
2022/05/05 04:44:19;;;;;;;25.50;15.10;;;9.90;99.90;;;;;;10437119;28;20056;-82
2022/05/05 04:49:20;;;;;;;21.97;12.87;;;10.10;99.90;;;;;;10440957;28;20122;-82
2022/05/05 04:54:20;;;;;;;20.00;13.38;;;10.30;99.90;;;;;;10425182;28;20018;-82
2022/05/05 04:59:21;;;;;;;22.73;11.57;;;10.50;99.90;;;;;;10392965;28;20025;-82
2022/05/05 05:04:22;;;;;;;22.30;11.80;;;10.60;99.90;;;;;;10412568;28;20393;-82
2022/05/05 05:09:23;;;;;;;17.10;11.43;;;10.80;99.90;;;;;;10409682;28;20022;-82
2022/05/05 05:14:23;;;;;;;19.48;11.90;;;11.00;99.90;;;;;;10410423;28;20104;-82
2022/05/05 05:19:27;;;;;;;19.52;12.10;;;11.20;99.90;;;;;;10411874;28;20029;-82
2022/05/05 05:24:28;;;;;;;21.73;12.52;;;11.40;99.90;;;;;;10412547;28;20021;-82
2022/05/05 05:29:28;;;;;;;20.63;12.25;;;11.40;99.90;;;;;;10412755;28;20030;-82
2022/05/05 05:34:29;;;;;;;19.27;12.23;;;11.50;99.90;;;;;;10412370;28;20033;-82
2022/05/05 05:39:30;;;;;;;22.15;12.50;;;11.60;99.90;;;;;;10394462;28;20033;-82
2022/05/05 05:44:31;;;;;;;22.83;13.55;;;11.60;99.90;;;;;;10394555;28;20032;-82
2022/05/05 05:49:32;;;;;;;21.30;14.30;;;11.90;99.90;;;;;;10411805;28;20026;-82
2022/05/05 05:54:33;;;;;;;20.95;13.43;;;12.10;99.90;;;;;;10411519;28;20025;-82
2022/05/05 05:59:33;;;;;;;28.23;15.80;;;12.30;99.90;;;;;;10393890;28;20507;-82
2022/05/05 06:04:34;;;;;;;23.67;13.80;;;12.50;99.90;;;;;;10412343;28;20030;-83
2022/05/05 06:09:35;;;;;;;25.38;15.13;;;12.80;99.90;;;;;;10411489;28;20022;-82
2022/05/05 06:14:35;;;;;;;24.30;14.48;;;13.10;98.00;;;;;;10410284;28;20049;-82
2022/05/05 06:19:36;;;;;;;25.80;15.02;;;13.30;98.80;;;;;;10411685;28;20080;-82
2022/05/05 06:24:37;;;;;;;25.95;15.60;;;13.50;96.70;;;;;;10410760;28;20359;-82
2022/05/05 06:29:38;;;;;;;26.33;15.27;;;13.80;95.80;;;;;;10411206;28;20112;-82
2022/05/05 06:34:38;;;;;;;24.70;16.15;;;14.00;95.60;;;;;;10410178;28;20052;-82
2022/05/05 06:39:39;;;;;;;19.55;13.70;;;14.30;96.00;;;;;;10410560;28;20033;-82
2022/05/05 06:44:40;;;;;;;22.02;13.75;;;14.50;95.10;;;;;;10410622;28;20041;-82
2022/05/05 06:49:40;;;;;;;22.17;14.35;;;14.70;95.90;;;;;;10409311;28;20021;-82
2022/05/05 06:54:41;;;;;;;21.25;13.27;;;15.00;95.30;;;;;;10409829;28;20112;-82
2022/05/05 06:59:42;;;;;;;20.50;12.98;;;15.30;95.20;;;;;;10409357;28;20488;-83
2022/05/05 07:15:21;;;;;;;15.88;9.38;;;18.00;90.30;;;;;;10408739;28;20138;-83
2022/05/05 07:20:23;;;;;;;13.82;9.88;;;19.00;85.60;;;;;;10408598;28;20033;-83
2022/05/05 07:25:24;;;;;;;14.75;10.07;;;19.50;82.50;;;;;;10408158;28;20504;-83
2022/05/05 07:30:25;;;;;;;16.90;9.73;;;19.40;79.30;;;;;;10408783;28;20018;-82
2022/05/05 07:35:25;;;;;;;15.18;9.73;;;19.30;77.90;;;;;;10408443;28;20385;-83
2022/05/05 07:40:26;;;;;;;19.50;11.20;;;19.30;79.90;;;;;;10408751;28;20660;-83
2022/05/05 07:45:27;;;;;;;15.63;10.20;;;19.40;77.60;;;;;;10413937;28;20029;-83
2022/05/05 07:50:27;;;;;;;15.38;10.57;;;19.60;77.80;;;;;;10416170;28;20029;-83
2022/05/05 07:55:28;;;;;;;14.98;9.80;;;19.70;75.10;;;;;;10416150;28;20025;-83
2022/05/05 08:00:29;;;;;;;13.45;9.25;;;20.00;77.10;;;;;;10416875;28;20108;-83
2022/05/05 08:05:29;;;;;;;13.25;8.68;;;20.30;75.60;;;;;;10416857;28;20613;-83
2022/05/05 08:10:31;;;;;;;12.73;9.05;;;20.20;75.60;;;;;;10415949;28;20029;-83
2022/05/05 08:15:31;;;;;;;17.10;9.23;;;20.50;75.80;;;;;;10415347;28;20400;-83
2022/05/05 08:20:33;;;;;;;11.57;8.55;;;20.90;73.70;;;;;;10415120;28;20024;-83
2022/05/05 08:30:52;;;;;;;12.80;9.75;;;20.60;72.00;;;;;;10415501;28;20042;-83
2022/05/05 08:35:57;;;;;;;15.88;10.05;;;20.60;72.10;;;;;;10414474;28;20448;-84
2022/05/05 08:40:59;;;;;;;16.77;10.30;;;20.60;71.80;;;;;;10414520;28;20489;-83
2022/05/05 08:46:02;;;;;;;16.45;11.18;;;20.80;71.70;;;;;;10414356;28;20037;-83
2022/05/05 08:51:04;;;;;;;16.00;9.90;;;21.40;71.20;;;;;;10414390;28;20470;-83
2022/05/05 08:56:05;;;;;;;15.98;9.85;;;21.80;69.50;;;;;;10413594;28;20099;-83
2022/05/05 09:01:05;;;;;;;16.50;10.68;;;22.00;69.20;;;;;;10413506;28;20469;-82
2022/05/05 09:06:06;;;;;;;17.48;12.07;;;22.00;67.30;;;;;;10396247;28;20032;-83
2022/05/05 09:11:07;;;;;;;10.00;8.38;;;22.10;67.40;;;;;;10413337;28;20021;-83
2022/05/05 09:16:08;;;;;;;10.77;7.57;;;22.20;67.40;;;;;;10413388;28;20064;-83
2022/05/05 09:21:09;;;;;;;12.27;9.05;;;22.00;62.90;;;;;;10395657;28;20534;-83
2022/05/05 09:26:09;;;;;;;13.40;9.55;;;21.80;67.10;;;;;;10412462;28;20091;-82
2022/05/05 09:31:10;;;;;;;12.82;8.25;;;21.50;66.10;;;;;;10413079;28;20400;-83
2022/05/05 09:36:12;;;;;;;10.93;7.78;;;21.80;68.10;;;;;;10412747;28;20128;-84
2022/05/05 09:41:13;;;;;;;11.50;7.97;;;22.40;64.70;;;;;;10412257;28;20108;-83
2022/05/05 09:46:23;;;;;;;14.07;8.10;;;22.60;66.90;;;;;;10394192;28;20080;-83
2022/05/05 09:51:23;;;;;;;13.45;7.68;;;23.10;65.40;;;;;;10411585;28;20094;-84
2022/05/05 10:01:50;;;;;;;12.88;7.93;;;23.60;66.20;;;;;;10411315;28;20034;-83
2022/05/05 10:06:54;;;;;;;11.77;8.25;;;24.00;65.10;;;;;;10410520;28;20033;-83
2022/05/05 10:11:55;;;;;;;10.57;6.70;;;24.30;62.80;;;;;;10411413;28;20029;-83
2022/05/05 10:16:57;;;;;;;8.98;6.18;;;24.40;61.20;;;;;;10411579;28;20054;-83
2022/05/05 10:22:01;;;;;;;6.30;5.22;;;24.40;61.30;;;;;;10410580;28;20018;-83
2022/05/05 10:27:03;;;;;;;7.57;5.53;;;24.40;59.50;;;;;;10410789;28;20128;-83
2022/05/05 10:32:21;;;;;;;6.40;5.70;;;24.50;56.60;;;;;;10410344;28;20029;-83
2022/05/05 10:37:32;;;;;;;8.38;5.75;;;24.50;57.80;;;;;;10410426;28;20080;-83
2022/05/05 10:42:45;;;;;;;6.88;6.10;;;24.60;59.30;;;;;;10409772;28;20029;-82
2022/05/05 10:47:58;;;;;;;7.35;5.43;;;24.70;60.00;;;;;;10409450;28;20056;-83
2022/05/05 10:53:01;;;;;;;8.73;6.10;;;24.50;57.90;;;;;;10409739;28;20063;-83
2022/05/05 10:58:01;;;;;;;7.82;5.68;;;24.40;57.80;;;;;;10409047;28;20076;-83
2022/05/05 11:03:09;;;;;;;5.32;4.40;;;24.50;60.30;;;;;;10409070;28;20107;-83
2022/05/05 11:08:17;;;;;;;6.07;3.78;;;25.00;60.10;;;;;;10409126;28;20049;-83
2022/05/05 11:13:55;;;;;;;5.97;4.85;;;25.10;61.70;;;;;;10409555;28;20026;-83
2022/05/05 11:24:49;;;;;;;8.68;3.90;;;25.20;54.20;;;;;;10447966;28;20029;-82
2022/05/05 11:29:51;;;;;;;4.57;3.72;;;25.20;59.40;;;;;;10444302;28;20491;-83
2022/05/05 11:34:52;;;;;;;5.20;3.45;;;25.50;58.60;;;;;;10446309;28;20476;-83
2022/05/05 11:39:53;;;;;;;5.22;3.60;;;25.70;54.50;;;;;;10446326;28;20043;-83
2022/05/05 11:44:53;;;;;;;4.18;2.95;;;24.80;54.10;;;;;;10448822;28;20448;-84
2022/05/05 11:49:56;;;;;;;5.13;3.72;;;24.10;57.60;;;;;;10439915;28;20060;-83
2022/05/05 11:54:57;;;;;;;5.10;4.05;;;23.70;61.00;;;;;;10432041;28;20068;-86
2022/05/05 12:05:21;;;;;;;9.70;3.88;;;25.00;59.70;;;;;;10433224;28;20048;-85
2022/05/05 12:10:21;;;;;;;5.90;3.70;;;25.40;58.90;;;;;;10442174;28;20025;-81
2022/05/05 12:15:23;;;;;;;7.78;3.65;;;25.30;57.40;;;;;;10420224;28;20532;-82
2022/05/05 12:20:24;;;;;;;4.47;3.20;;;25.60;58.70;;;;;;10411842;28;20164;-82
2022/05/05 12:25:26;;;;;;;4.10;3.20;;;25.80;58.00;;;;;;10431676;28;20032;-80
2022/05/05 12:30:34;;;;;;;6.22;3.08;;;25.70;59.30;;;;;;10428670;28;20025;-81
2022/05/05 12:35:45;;;;;;;13.90;3.60;;;26.10;57.30;;;;;;10438534;28;20044;-83
2022/05/05 12:40:46;;;;;;;4.80;2.92;;;26.50;57.60;;;;;;10427050;28;20029;-83
2022/05/05 12:45:48;;;;;;;3.97;2.60;;;26.70;55.80;;;;;;10439832;28;20021;-82
2022/05/05 12:50:52;;;;;;;4.70;3.13;;;26.60;53.90;;;;;;10433982;28;20029;-83
2022/05/05 13:01:37;;;;;;;4.38;3.17;;;26.20;57.00;;;;;;10429734;28;20386;-83
2022/05/05 13:06:41;;;;;;;45.00;21.08;;;26.40;55.10;;;;;;10440217;28;20037;-82
2022/05/05 13:11:44;;;;;;;63.70;50.58;;;25.70;54.90;;;;;;10423193;28;20033;-82
2022/05/05 13:16:45;;;;;;;10.05;9.05;;;25.20;57.10;;;;;;10399388;28;20386;-82
2022/05/05 13:21:46;;;;;;;9.50;4.53;;;24.80;57.00;;;;;;10447784;28;20036;-83
2022/05/05 13:26:48;;;;;;;12.68;11.48;;;24.20;56.00;;;;;;10437008;28;20025;-82
2022/05/05 13:31:48;;;;;;;6.65;4.53;;;23.70;57.70;;;;;;10442910;28;20190;-82
2022/05/05 13:36:49;;;;;;;4.13;3.72;;;23.20;59.80;;;;;;10436046;28;20049;-83
2022/05/05 13:41:50;;;;;;;10.07;7.90;;;22.80;59.70;;;;;;10439180;28;20033;-82
2022/05/05 13:46:50;;;;;;;7.20;5.22;;;22.60;59.70;;;;;;10431183;28;20105;-81
2022/05/05 13:51:51;;;;;;;7.07;4.82;;;22.50;62.60;;;;;;10416569;28;20036;-82
2022/05/05 13:56:52;;;;;;;6.00;5.00;;;22.40;62.40;;;;;;10413843;28;20033;-81
2022/05/05 14:01:53;;;;;;;31.30;25.35;;;22.30;62.20;;;;;;10421414;28;20041;-83
2022/05/05 14:06:54;;;;;;;6.90;5.63;;;22.20;62.50;;;;;;10422121;28;20029;-85
2022/05/05 14:12:10;;;;;;;5.05;4.55;;;22.00;62.40;;;;;;10419112;28;20036;-83
2022/05/05 14:17:12;;;;;;;8.20;5.25;;;21.80;61.10;;;;;;10410623;28;20136;-83
2022/05/05 14:22:13;;;;;;;9.18;6.32;;;21.80;63.30;;;;;;10421823;28;20025;-83
2022/05/05 14:27:13;;;;;;;4.75;4.30;;;21.70;63.30;;;;;;10421928;28;21128;-83
2022/05/05 14:32:14;;;;;;;11.13;8.40;;;21.60;64.80;;;;;;10419442;28;20082;-83
2022/05/05 14:37:15;;;;;;;25.20;20.42;;;21.50;63.30;;;;;;10434884;28;20038;-83
2022/05/05 14:42:16;;;;;;;34.88;27.17;;;21.40;63.40;;;;;;10429129;28;20121;-83
2022/05/05 14:47:16;;;;;;;12.05;7.55;;;21.10;65.90;;;;;;10427371;28;20120;-84
2022/05/05 14:52:18;;;;;;;11.90;8.32;;;20.90;67.30;;;;;;10422059;28;20067;-84
2022/05/05 14:57:19;;;;;;;4.60;2.88;;;20.60;69.70;;;;;;10421170;28;20032;-83
2022/05/05 15:02:19;;;;;;;8.27;3.40;;;20.20;70.40;;;;;;10409594;28;20021;-83
2022/05/05 15:07:20;;;;;;;5.25;3.97;;;19.80;70.90;;;;;;10421218;28;20075;-84
2022/05/05 15:12:22;;;;;;;12.32;6.07;;;19.50;72.40;;;;;;10422250;28;20517;-87
2022/05/05 15:17:23;;;;;;;22.42;10.52;;;19.20;72.50;;;;;;10433841;28;20064;-87
2022/05/05 15:22:24;;;;;;;14.30;7.03;;;18.90;74.50;;;;;;10430037;28;20441;-87
2022/05/05 15:27:25;;;;;;;31.23;16.50;;;18.50;76.90;;;;;;10434427;28;20111;-86
2022/05/05 15:32:29;;;;;;;27.67;14.05;;;18.00;79.30;;;;;;10431692;28;20021;-87
2022/05/05 15:37:33;;;;;;;27.17;13.88;;;17.60;78.90;;;;;;10411219;28;20523;-86
2022/05/05 15:42:34;;;;;;;13.25;8.07;;;17.40;80.10;;;;;;10436183;28;20037;-86
2022/05/05 15:47:39;;;;;;;36.75;16.30;;;17.20;80.10;;;;;;10412946;28;20103;-87
2022/05/05 15:52:40;;;;;;;34.35;16.70;;;17.10;81.50;;;;;;10415803;28;20021;-86
2022/05/05 15:57:42;;;;;;;28.38;13.48;;;16.90;81.70;;;;;;10430734;28;20041;-86
2022/05/05 16:02:45;;;;;;;8.38;4.50;;;16.80;82.30;;;;;;10421651;28;20041;-87
2022/05/05 16:07:50;;;;;;;9.43;4.88;;;16.70;82.30;;;;;;10422292;28;20378;-86
2022/05/05 16:12:51;;;;;;;6.43;3.30;;;16.70;82.50;;;;;;10441931;28;20064;-85
2022/05/05 16:17:52;;;;;;;16.13;7.78;;;16.60;81.90;;;;;;10434329;28;20106;-86
2022/05/05 16:22:54;;;;;;;35.83;18.67;;;16.70;81.80;;;;;;10432090;28;20086;-86
2022/05/05 16:33:18;;;;;;;4.65;3.55;;;16.70;84.70;;;;;;10442181;28;20037;-84
2022/05/05 16:38:20;;;;;;;5.40;3.83;;;16.30;88.90;;;;;;10441996;28;20128;-87
2022/05/05 16:43:21;;;;;;;8.43;4.78;;;15.60;95.00;;;;;;10439599;28;20028;-86
2022/05/05 16:48:21;;;;;;;8.45;4.90;;;15.00;99.90;;;;;;10419046;28;20021;-90
2022/05/05 16:53:23;;;;;;;20.95;12.40;;;14.20;99.90;;;;;;10428761;28;20016;-86
2022/05/05 16:58:26;;;;;;;18.48;11.32;;;13.80;99.90;;;;;;10417995;28;20043;-87
2022/05/05 17:03:27;;;;;;;16.48;10.85;;;13.60;99.90;;;;;;10429221;28;20013;-86
2022/05/05 17:08:27;;;;;;;30.40;20.13;;;13.50;99.90;;;;;;10444568;28;20047;-85
2022/05/05 17:13:28;;;;;;;34.70;21.90;;;13.40;99.90;;;;;;10438632;28;21052;-86
2022/05/05 17:18:29;;;;;;;26.35;16.67;;;13.40;99.90;;;;;;10440269;28;20068;-85
2022/05/05 17:23:29;;;;;;;25.48;16.08;;;13.40;99.90;;;;;;10319579;28;20024;-83
2022/05/05 17:28:30;;;;;;;20.33;13.63;;;13.50;99.90;;;;;;10369407;28;20493;-84
2022/05/05 17:33:31;;;;;;;20.73;13.45;;;13.40;99.90;;;;;;10375885;28;20151;-85
2022/05/05 17:38:32;;;;;;;24.70;14.90;;;13.30;99.90;;;;;;10416049;28;20046;-86
2022/05/05 17:43:32;;;;;;;33.60;21.48;;;13.10;99.90;;;;;;10435165;28;20040;-85
2022/05/05 17:53:53;;;;;;;38.70;22.25;;;12.80;99.90;;;;;;10438015;28;20041;-84
2022/05/05 17:58:53;;;;;;;42.58;23.10;;;12.70;99.90;;;;;;10432706;28;20040;-86
2022/05/05 18:03:56;;;;;;;29.73;19.83;;;12.70;99.90;;;;;;10411371;28;20051;-86
2022/05/05 18:09:06;;;;;;;36.47;22.45;;;12.80;99.90;;;;;;10401402;28;20021;-90
2022/05/05 18:14:07;;;;;;;40.58;23.73;;;12.80;99.90;;;;;;10404519;28;20372;-88
2022/05/05 18:19:11;;;;;;;36.90;23.90;;;12.80;99.90;;;;;;10402071;28;20084;-87
2022/05/05 18:24:12;;;;;;;30.83;20.95;;;12.80;99.90;;;;;;10406792;28;20103;-90
2022/05/05 18:29:13;;;;;;;30.38;19.05;;;12.80;99.90;;;;;;10409496;28;20108;-89
2022/05/05 18:34:14;;;;;;;77.35;33.30;;;12.80;99.90;;;;;;10428270;28;20037;-89
2022/05/05 18:39:15;;;;;;;51.08;29.25;;;12.80;99.90;;;;;;10399461;28;20037;-86
2022/05/05 18:44:16;;;;;;;148.00;47.08;;;12.70;99.90;;;;;;10417258;28;20041;-85
2022/05/05 18:49:17;;;;;;;206.57;55.45;;;12.70;99.90;;;;;;10408057;28;20148;-88
2022/05/05 18:54:17;;;;;;;340.23;89.10;;;12.60;99.90;;;;;;10409179;28;20100;-86
2022/05/05 18:59:18;;;;;;;69.15;36.50;;;12.50;99.90;;;;;;10431404;28;20655;-86
2022/05/05 19:04:19;;;;;;;51.08;29.77;;;12.50;99.90;;;;;;10417888;28;20680;-87
2022/05/05 19:09:20;;;;;;;54.15;32.15;;;12.70;99.90;;;;;;10404633;28;20024;-86
2022/05/05 19:14:21;;;;;;;80.65;45.50;;;12.80;99.90;;;;;;10428712;28;20033;-84
2022/05/05 19:19:22;;;;;;;77.75;43.83;;;12.80;99.90;;;;;;10442897;28;20044;-86
2022/05/05 19:24:27;;;;;;;79.13;41.00;;;12.90;99.90;;;;;;10421710;28;20025;-87
2022/05/05 19:29:29;;;;;;;65.85;37.92;;;12.90;99.90;;;;;;10433532;28;20025;-85
2022/05/05 19:34:38;;;;;;;72.72;42.00;;;13.00;99.90;;;;;;10426714;28;20397;-87
2022/05/05 19:39:42;;;;;;;95.25;47.78;;;13.10;99.90;;;;;;10440984;28;20044;-85
2022/05/05 19:44:42;;;;;;;104.15;53.17;;;13.10;99.90;;;;;;10580711;23;20056;-87
2022/05/05 19:49:43;;;;;;;110.10;56.38;;;13.10;99.90;;;;;;10447542;28;20047;-88
2022/05/05 19:54:45;;;;;;;88.63;51.08;;;13.10;99.90;;;;;;10435601;28;20029;-87
2022/05/05 20:10:27;;;;;;;93.00;51.50;;;12.90;99.90;;;;;;10452778;28;20033;-88
2022/05/05 20:15:29;;;;;;;131.60;57.45;;;12.90;99.90;;;;;;10453259;28;20040;-87
2022/05/05 20:20:29;;;;;;;241.32;80.78;;;13.00;99.90;;;;;;10452239;28;20021;-87
2022/05/05 20:25:30;;;;;;;129.40;61.55;;;13.00;99.90;;;;;;10434650;28;20017;-87
2022/05/05 20:30:31;;;;;;;142.20;68.80;;;13.10;99.90;;;;;;10450855;28;20124;-87
2022/05/05 20:35:32;;;;;;;190.38;75.20;;;13.10;99.90;;;;;;10451187;28;20033;-87
2022/05/05 20:40:33;;;;;;;156.50;71.15;;;13.10;99.90;;;;;;10433424;28;20041;-87
2022/05/05 20:45:34;;;;;;;151.75;73.30;;;13.10;99.90;;;;;;10434465;28;20059;-87
2022/05/05 20:50:35;;;;;;;182.73;82.45;;;13.00;99.90;;;;;;10450607;28;20028;-88
2022/05/05 20:55:36;;;;;;;139.38;71.65;;;13.00;99.90;;;;;;10432805;28;20079;-87
2022/05/05 21:00:37;;;;;;;162.13;75.28;;;12.90;99.90;;;;;;10433373;28;20056;-87
2022/05/05 21:05:37;;;;;;;190.73;80.93;;;12.90;99.90;;;;;;10451385;28;20126;-88
2022/05/05 21:10:40;;;;;;;242.77;81.38;;;12.90;99.90;;;;;;10432727;28;20021;-87
2022/05/05 21:15:40;;;;;;;212.98;79.43;;;12.90;99.90;;;;;;10451186;28;20049;-87
2022/05/05 21:26:14;;;;;;;322.08;89.28;;;12.80;99.90;;;;;;10426927;28;20123;-88
2022/05/05 21:31:15;;;;;;;274.38;88.47;;;12.90;99.90;;;;;;10432216;28;20063;-87
2022/05/05 21:36:15;;;;;;;209.40;76.70;;;12.90;99.90;;;;;;10450596;28;20593;-87
2022/05/05 21:41:16;;;;;;;162.88;72.25;;;13.00;99.90;;;;;;10449490;28;20036;-87
2022/05/05 21:46:17;;;;;;;255.98;80.10;;;12.90;99.90;;;;;;10445523;28;20065;-88
2022/05/05 21:51:17;;;;;;;197.85;74.22;;;13.00;99.90;;;;;;10447900;28;20106;-87
2022/05/05 21:56:18;;;;;;;210.02;73.20;;;12.90;99.90;;;;;;10449764;28;20119;-87
2022/05/05 22:01:19;;;;;;;244.70;93.13;;;12.90;99.90;;;;;;10446462;28;20025;-87
2022/05/05 22:06:21;;;;;;;141.30;66.40;;;12.90;99.90;;;;;;10431214;28;20021;-87
2022/05/05 22:11:22;;;;;;;220.38;78.57;;;12.90;99.90;;;;;;10427229;28;20025;-88
2022/05/05 22:16:22;;;;;;;215.00;77.47;;;12.80;99.90;;;;;;10448150;28;20484;-88
2022/05/05 22:21:23;;;;;;;122.95;56.53;;;12.70;99.90;;;;;;10448800;28;20036;-88
2022/05/05 22:26:25;;;;;;;117.97;56.05;;;12.60;99.90;;;;;;10446677;28;20470;-87
2022/05/05 22:31:26;;;;;;;248.18;84.45;;;12.50;99.90;;;;;;10483647;23;20511;-87
2022/05/05 22:36:28;;;;;;;304.95;87.38;;;12.40;99.90;;;;;;10489628;28;20047;-87
2022/05/05 22:46:48;;;;;;;196.02;73.93;;;12.20;99.90;;;;;;10489429;28;20511;-87
2022/05/05 22:51:49;;;;;;;262.90;84.68;;;12.10;99.90;;;;;;10470498;28;20037;-87
2022/05/05 22:56:49;;;;;;;191.85;78.68;;;12.00;99.90;;;;;;10469173;28;20048;-87
2022/05/05 23:01:50;;;;;;;467.80;124.55;;;12.00;99.90;;;;;;10470494;28;20033;-87
2022/05/05 23:06:52;;;;;;;291.73;92.15;;;12.00;99.90;;;;;;10488381;28;20183;-87
2022/05/05 23:11:52;;;;;;;273.23;84.18;;;12.00;99.90;;;;;;10486151;28;20387;-88
2022/05/05 23:16:53;;;;;;;299.83;92.53;;;11.90;99.90;;;;;;10459887;28;20051;-89
2022/05/05 23:21:54;;;;;;;113.53;53.75;;;11.90;99.90;;;;;;10485968;28;20151;-88
2022/05/05 23:26:55;;;;;;;192.88;74.07;;;11.80;99.90;;;;;;10469868;28;20585;-87
2022/05/05 23:31:55;;;;;;;172.77;69.85;;;12.00;99.90;;;;;;10485324;28;20070;-87
2022/05/05 23:36:56;;;;;;;224.55;81.38;;;12.00;99.90;;;;;;10485903;28;20401;-87
2022/05/05 23:41:56;;;;;;;172.00;67.38;;;12.10;99.90;;;;;;10486988;28;20036;-90
2022/05/05 23:47:00;;;;;;;175.90;69.38;;;12.10;99.90;;;;;;10469876;28;20115;-87
2022/05/05 23:52:00;;;;;;;303.48;98.13;;;12.10;99.90;;;;;;10487383;28;20090;-88
2022/05/05 23:57:01;;;;;;;255.68;81.43;;;12.00;99.90;;;;;;10468967;28;20036;-90
